sensor_id;sensor_type;location;lat;lon;timestamp;temperature;humidity
24470;DHT22;12635;50.852;5.676;2023-04-19T00:00:17;9.20;99.90
24470;DHT22;12635;50.852;5.676;2023-04-19T00:02:44;9.20;99.90
24470;DHT22;12635;50.852;5.676;2023-04-19T00:05:13;9.20;99.90
24470;DHT22;12635;50.852;5.676;2023-04-19T00:07:40;9.20;99.90
24470;DHT22;12635;50.852;5.676;2023-04-19T00:10:08;9.30;99.90
24470;DHT22;12635;50.852;5.676;2023-04-19T00:12:36;9.30;99.90
24470;DHT22;12635;50.852;5.676;2023-04-19T00:15:03;9.30;99.90
24470;DHT22;12635;50.852;5.676;2023-04-19T00:17:30;9.30;99.90
24470;DHT22;12635;50.852;5.676;2023-04-19T00:19:57;9.30;99.90
24470;DHT22;12635;50.852;5.676;2023-04-19T00:22:24;9.40;99.90
24470;DHT22;12635;50.852;5.676;2023-04-19T00:24:51;9.50;99.90
24470;DHT22;12635;50.852;5.676;2023-04-19T00:27:18;9.50;99.90
24470;DHT22;12635;50.852;5.676;2023-04-19T00:29:46;9.50;99.90
24470;DHT22;12635;50.852;5.676;2023-04-19T00:32:14;9.50;99.90
24470;DHT22;12635;50.852;5.676;2023-04-19T00:34:40;9.50;99.90
24470;DHT22;12635;50.852;5.676;2023-04-19T00:37:07;9.50;99.90
24470;DHT22;12635;50.852;5.676;2023-04-19T00:39:35;9.50;99.90
24470;DHT22;12635;50.852;5.676;2023-04-19T00:42:02;9.50;99.90
24470;DHT22;12635;50.852;5.676;2023-04-19T00:44:29;9.50;99.90
24470;DHT22;12635;50.852;5.676;2023-04-19T00:46:57;9.50;99.90
24470;DHT22;12635;50.852;5.676;2023-04-19T00:49:25;9.50;99.90
24470;DHT22;12635;50.852;5.676;2023-04-19T00:51:52;9.50;99.90
24470;DHT22;12635;50.852;5.676;2023-04-19T00:54:20;9.50;99.90
24470;DHT22;12635;50.852;5.676;2023-04-19T00:56:46;9.60;99.90
24470;DHT22;12635;50.852;5.676;2023-04-19T00:59:13;9.60;99.90
24470;DHT22;12635;50.852;5.676;2023-04-19T01:01:40;9.60;99.90
24470;DHT22;12635;50.852;5.676;2023-04-19T01:04:09;9.60;99.90
24470;DHT22;12635;50.852;5.676;2023-04-19T01:06:35;9.60;99.90
24470;DHT22;12635;50.852;5.676;2023-04-19T01:09:03;9.70;99.90
24470;DHT22;12635;50.852;5.676;2023-04-19T01:11:30;9.70;99.90
24470;DHT22;12635;50.852;5.676;2023-04-19T01:13:57;9.70;99.90
24470;DHT22;12635;50.852;5.676;2023-04-19T01:16:24;9.70;99.90
24470;DHT22;12635;50.852;5.676;2023-04-19T01:18:51;9.60;99.90
24470;DHT22;12635;50.852;5.676;2023-04-19T01:21:19;9.60;99.90
24470;DHT22;12635;50.852;5.676;2023-04-19T01:23:48;9.60;99.90
24470;DHT22;12635;50.852;5.676;2023-04-19T01:26:17;9.60;99.90
24470;DHT22;12635;50.852;5.676;2023-04-19T01:28:44;9.70;99.90
24470;DHT22;12635;50.852;5.676;2023-04-19T01:31:11;9.70;99.90
24470;DHT22;12635;50.852;5.676;2023-04-19T01:33:38;9.60;99.90
24470;DHT22;12635;50.852;5.676;2023-04-19T01:36:05;9.60;99.90
24470;DHT22;12635;50.852;5.676;2023-04-19T01:38:32;9.60;99.90
24470;DHT22;12635;50.852;5.676;2023-04-19T01:41:00;9.60;99.90
24470;DHT22;12635;50.852;5.676;2023-04-19T01:43:27;9.60;99.90
24470;DHT22;12635;50.852;5.676;2023-04-19T01:45:54;9.60;99.90
24470;DHT22;12635;50.852;5.676;2023-04-19T01:48:21;9.60;99.90
24470;DHT22;12635;50.852;5.676;2023-04-19T01:50:48;9.50;99.90
24470;DHT22;12635;50.852;5.676;2023-04-19T01:53:14;9.50;99.90
24470;DHT22;12635;50.852;5.676;2023-04-19T01:55:41;9.50;99.90
24470;DHT22;12635;50.852;5.676;2023-04-19T01:58:10;9.50;99.90
24470;DHT22;12635;50.852;5.676;2023-04-19T02:00:36;9.50;99.90
24470;DHT22;12635;50.852;5.676;2023-04-19T02:03:03;9.50;99.90
24470;DHT22;12635;50.852;5.676;2023-04-19T02:05:30;9.50;99.90
24470;DHT22;12635;50.852;5.676;2023-04-19T02:07:57;9.60;99.90
24470;DHT22;12635;50.852;5.676;2023-04-19T02:10:25;9.60;99.90
24470;DHT22;12635;50.852;5.676;2023-04-19T02:12:52;9.60;99.90
24470;DHT22;12635;50.852;5.676;2023-04-19T02:15:20;9.50;99.90
24470;DHT22;12635;50.852;5.676;2023-04-19T02:17:47;9.50;99.90
24470;DHT22;12635;50.852;5.676;2023-04-19T02:20:14;9.50;99.90
24470;DHT22;12635;50.852;5.676;2023-04-19T02:22:41;9.50;99.90
24470;DHT22;12635;50.852;5.676;2023-04-19T02:25:08;9.50;99.90
24470;DHT22;12635;50.852;5.676;2023-04-19T02:27:35;9.50;99.90
24470;DHT22;12635;50.852;5.676;2023-04-19T02:30:02;9.40;99.90
24470;DHT22;12635;50.852;5.676;2023-04-19T02:32:30;9.40;99.90
24470;DHT22;12635;50.852;5.676;2023-04-19T02:34:57;9.40;99.90
24470;DHT22;12635;50.852;5.676;2023-04-19T02:37:24;9.20;99.90
24470;DHT22;12635;50.852;5.676;2023-04-19T02:39:51;9.00;99.90
24470;DHT22;12635;50.852;5.676;2023-04-19T02:42:18;8.90;99.90
24470;DHT22;12635;50.852;5.676;2023-04-19T02:44:45;8.90;99.90
24470;DHT22;12635;50.852;5.676;2023-04-19T02:47:11;8.80;99.90
24470;DHT22;12635;50.852;5.676;2023-04-19T02:49:40;8.60;99.90
24470;DHT22;12635;50.852;5.676;2023-04-19T02:52:07;8.50;99.90
24470;DHT22;12635;50.852;5.676;2023-04-19T02:54:34;8.30;99.90
24470;DHT22;12635;50.852;5.676;2023-04-19T02:57:00;8.10;99.90
24470;DHT22;12635;50.852;5.676;2023-04-19T02:59:27;7.90;99.90
24470;DHT22;12635;50.852;5.676;2023-04-19T03:01:54;7.90;99.90
24470;DHT22;12635;50.852;5.676;2023-04-19T03:04:21;7.70;99.90
24470;DHT22;12635;50.852;5.676;2023-04-19T03:06:49;7.60;99.90
24470;DHT22;12635;50.852;5.676;2023-04-19T03:09:16;7.50;99.90
24470;DHT22;12635;50.852;5.676;2023-04-19T03:11:43;7.40;99.90
24470;DHT22;12635;50.852;5.676;2023-04-19T03:14:10;7.30;99.90
24470;DHT22;12635;50.852;5.676;2023-04-19T03:16:37;7.20;99.90
24470;DHT22;12635;50.852;5.676;2023-04-19T03:19:03;7.00;99.90
24470;DHT22;12635;50.852;5.676;2023-04-19T03:21:30;7.10;99.90
24470;DHT22;12635;50.852;5.676;2023-04-19T03:23:58;7.20;99.90
24470;DHT22;12635;50.852;5.676;2023-04-19T03:26:25;7.20;99.90
24470;DHT22;12635;50.852;5.676;2023-04-19T03:28:52;7.20;99.90
24470;DHT22;12635;50.852;5.676;2023-04-19T03:31:19;7.50;99.90
24470;DHT22;12635;50.852;5.676;2023-04-19T03:33:46;7.50;99.90
24470;DHT22;12635;50.852;5.676;2023-04-19T03:36:13;7.40;99.90
24470;DHT22;12635;50.852;5.676;2023-04-19T03:38:39;7.40;99.90
24470;DHT22;12635;50.852;5.676;2023-04-19T03:41:18;7.30;99.90
24470;DHT22;12635;50.852;5.676;2023-04-19T03:43:44;7.50;99.90
24470;DHT22;12635;50.852;5.676;2023-04-19T03:46:11;7.60;99.90
24470;DHT22;12635;50.852;5.676;2023-04-19T03:48:38;7.60;99.90
24470;DHT22;12635;50.852;5.676;2023-04-19T03:51:05;7.70;99.90
24470;DHT22;12635;50.852;5.676;2023-04-19T03:53:32;7.90;99.90
24470;DHT22;12635;50.852;5.676;2023-04-19T03:55:59;8.00;99.90
24470;DHT22;12635;50.852;5.676;2023-04-19T03:58:27;8.10;99.90
24470;DHT22;12635;50.852;5.676;2023-04-19T04:00:54;8.20;99.90
24470;DHT22;12635;50.852;5.676;2023-04-19T04:03:21;8.30;99.90
24470;DHT22;12635;50.852;5.676;2023-04-19T04:05:47;8.40;99.90
24470;DHT22;12635;50.852;5.676;2023-04-19T04:08:14;8.40;99.90
24470;DHT22;12635;50.852;5.676;2023-04-19T04:10:41;8.50;99.90
24470;DHT22;12635;50.852;5.676;2023-04-19T04:13:08;8.50;99.90
24470;DHT22;12635;50.852;5.676;2023-04-19T04:15:36;8.60;99.90
24470;DHT22;12635;50.852;5.676;2023-04-19T04:18:03;8.60;99.90
24470;DHT22;12635;50.852;5.676;2023-04-19T04:20:30;8.60;99.90
24470;DHT22;12635;50.852;5.676;2023-04-19T04:22:57;8.60;99.90
24470;DHT22;12635;50.852;5.676;2023-04-19T04:25:24;8.70;99.90
24470;DHT22;12635;50.852;5.676;2023-04-19T04:27:53;8.70;99.90
24470;DHT22;12635;50.852;5.676;2023-04-19T04:30:20;8.80;99.90
24470;DHT22;12635;50.852;5.676;2023-04-19T04:32:48;8.80;99.90
24470;DHT22;12635;50.852;5.676;2023-04-19T04:35:16;9.00;99.90
24470;DHT22;12635;50.852;5.676;2023-04-19T04:37:43;9.00;99.90
24470;DHT22;12635;50.852;5.676;2023-04-19T04:40:10;9.00;99.90
24470;DHT22;12635;50.852;5.676;2023-04-19T04:42:37;9.00;99.90
24470;DHT22;12635;50.852;5.676;2023-04-19T04:45:05;9.00;99.90
24470;DHT22;12635;50.852;5.676;2023-04-19T04:47:32;9.10;99.90
24470;DHT22;12635;50.852;5.676;2023-04-19T04:50:01;9.10;99.90
24470;DHT22;12635;50.852;5.676;2023-04-19T04:52:28;9.00;99.90
24470;DHT22;12635;50.852;5.676;2023-04-19T04:54:55;9.10;99.90
24470;DHT22;12635;50.852;5.676;2023-04-19T04:57:22;9.20;99.90
24470;DHT22;12635;50.852;5.676;2023-04-19T04:59:48;9.20;99.90
24470;DHT22;12635;50.852;5.676;2023-04-19T05:02:15;9.20;99.90
24470;DHT22;12635;50.852;5.676;2023-04-19T05:04:42;9.20;99.90
24470;DHT22;12635;50.852;5.676;2023-04-19T05:07:11;9.20;99.90
24470;DHT22;12635;50.852;5.676;2023-04-19T05:09:38;9.20;99.90
24470;DHT22;12635;50.852;5.676;2023-04-19T05:12:05;9.30;99.90
24470;DHT22;12635;50.852;5.676;2023-04-19T05:14:32;9.30;99.90
24470;DHT22;12635;50.852;5.676;2023-04-19T05:16:58;9.30;99.90
24470;DHT22;12635;50.852;5.676;2023-04-19T05:19:25;9.30;99.90
24470;DHT22;12635;50.852;5.676;2023-04-19T05:21:52;9.40;99.90
24470;DHT22;12635;50.852;5.676;2023-04-19T05:24:20;9.40;99.90
24470;DHT22;12635;50.852;5.676;2023-04-19T05:26:47;9.50;99.90
24470;DHT22;12635;50.852;5.676;2023-04-19T05:29:14;9.50;99.90
24470;DHT22;12635;50.852;5.676;2023-04-19T05:31:41;9.50;99.90
24470;DHT22;12635;50.852;5.676;2023-04-19T05:34:08;9.60;99.90
24470;DHT22;12635;50.852;5.676;2023-04-19T05:36:35;9.70;99.90
24470;DHT22;12635;50.852;5.676;2023-04-19T05:39:01;9.70;99.90
24470;DHT22;12635;50.852;5.676;2023-04-19T05:41:30;9.70;99.90
24470;DHT22;12635;50.852;5.676;2023-04-19T05:43:57;9.70;99.90
24470;DHT22;12635;50.852;5.676;2023-04-19T05:46:23;9.70;99.90
24470;DHT22;12635;50.852;5.676;2023-04-19T05:48:50;9.80;99.90
24470;DHT22;12635;50.852;5.676;2023-04-19T05:51:17;9.80;99.90
24470;DHT22;12635;50.852;5.676;2023-04-19T05:53:44;9.90;99.90
24470;DHT22;12635;50.852;5.676;2023-04-19T05:56:11;9.90;99.90
24470;DHT22;12635;50.852;5.676;2023-04-19T05:58:39;10.00;99.90
24470;DHT22;12635;50.852;5.676;2023-04-19T06:01:06;10.00;99.90
24470;DHT22;12635;50.852;5.676;2023-04-19T06:03:32;10.20;99.90
24470;DHT22;12635;50.852;5.676;2023-04-19T06:05:59;10.30;99.90
24470;DHT22;12635;50.852;5.676;2023-04-19T06:08:26;10.40;99.90
24470;DHT22;12635;50.852;5.676;2023-04-19T06:10:53;10.50;99.90
24470;DHT22;12635;50.852;5.676;2023-04-19T06:13:21;10.70;99.90
24470;DHT22;12635;50.852;5.676;2023-04-19T06:15:49;10.80;99.90
24470;DHT22;12635;50.852;5.676;2023-04-19T06:18:16;11.00;99.90
24470;DHT22;12635;50.852;5.676;2023-04-19T06:20:43;11.10;99.90
24470;DHT22;12635;50.852;5.676;2023-04-19T06:23:09;11.30;99.90
24470;DHT22;12635;50.852;5.676;2023-04-19T06:25:38;11.30;99.90
24470;DHT22;12635;50.852;5.676;2023-04-19T06:28:05;11.60;99.90
24470;DHT22;12635;50.852;5.676;2023-04-19T06:30:32;11.90;99.90
24470;DHT22;12635;50.852;5.676;2023-04-19T06:33:00;11.90;99.90
24470;DHT22;12635;50.852;5.676;2023-04-19T06:35:27;11.90;99.90
24470;DHT22;12635;50.852;5.676;2023-04-19T06:37:54;12.20;99.90
24470;DHT22;12635;50.852;5.676;2023-04-19T06:40:21;12.10;99.90
24470;DHT22;12635;50.852;5.676;2023-04-19T06:42:47;12.00;99.90
24470;DHT22;12635;50.852;5.676;2023-04-19T06:45:14;12.10;99.90
24470;DHT22;12635;50.852;5.676;2023-04-19T06:47:41;12.10;99.90
24470;DHT22;12635;50.852;5.676;2023-04-19T06:50:10;12.20;99.90
24470;DHT22;12635;50.852;5.676;2023-04-19T06:52:37;12.20;99.90
24470;DHT22;12635;50.852;5.676;2023-04-19T06:55:04;12.20;99.90
24470;DHT22;12635;50.852;5.676;2023-04-19T06:57:31;12.20;99.90
24470;DHT22;12635;50.852;5.676;2023-04-19T06:59:58;12.10;99.90
24470;DHT22;12635;50.852;5.676;2023-04-19T07:02:25;12.40;99.90
24470;DHT22;12635;50.852;5.676;2023-04-19T07:04:52;12.50;99.90
24470;DHT22;12635;50.852;5.676;2023-04-19T07:07:20;12.30;99.90
24470;DHT22;12635;50.852;5.676;2023-04-19T07:09:47;12.40;99.90
24470;DHT22;12635;50.852;5.676;2023-04-19T07:12:14;12.50;99.90
24470;DHT22;12635;50.852;5.676;2023-04-19T07:14:41;12.40;99.90
24470;DHT22;12635;50.852;5.676;2023-04-19T07:17:08;12.20;99.90
24470;DHT22;12635;50.852;5.676;2023-04-19T07:19:34;11.80;99.90
24470;DHT22;12635;50.852;5.676;2023-04-19T07:22:01;11.70;99.90
24470;DHT22;12635;50.852;5.676;2023-04-19T07:24:31;11.90;99.90
24470;DHT22;12635;50.852;5.676;2023-04-19T07:26:58;12.20;99.90
24470;DHT22;12635;50.852;5.676;2023-04-19T07:29:26;12.20;99.90
24470;DHT22;12635;50.852;5.676;2023-04-19T07:31:53;12.20;99.90
24470;DHT22;12635;50.852;5.676;2023-04-19T07:34:20;12.40;99.90
24470;DHT22;12635;50.852;5.676;2023-04-19T07:36:46;12.60;99.90
24470;DHT22;12635;50.852;5.676;2023-04-19T07:39:13;12.80;99.90
24470;DHT22;12635;50.852;5.676;2023-04-19T07:41:42;12.60;99.90
24470;DHT22;12635;50.852;5.676;2023-04-19T07:44:09;12.70;99.90
24470;DHT22;12635;50.852;5.676;2023-04-19T07:46:37;13.30;99.90
24470;DHT22;12635;50.852;5.676;2023-04-19T07:49:04;14.30;99.90
24470;DHT22;12635;50.852;5.676;2023-04-19T07:51:31;14.30;99.90
24470;DHT22;12635;50.852;5.676;2023-04-19T07:53:58;14.40;99.90
24470;DHT22;12635;50.852;5.676;2023-04-19T07:56:25;14.80;99.90
24470;DHT22;12635;50.852;5.676;2023-04-19T07:58:53;16.20;99.90
24470;DHT22;12635;50.852;5.676;2023-04-19T08:01:20;16.40;99.90
24470;DHT22;12635;50.852;5.676;2023-04-19T08:03:47;17.10;99.90
24470;DHT22;12635;50.852;5.676;2023-04-19T08:06:14;16.80;99.90
24470;DHT22;12635;50.852;5.676;2023-04-19T08:08:42;17.10;99.90
24470;DHT22;12635;50.852;5.676;2023-04-19T08:11:09;17.50;99.90
24470;DHT22;12635;50.852;5.676;2023-04-19T08:13:36;18.80;99.90
24470;DHT22;12635;50.852;5.676;2023-04-19T08:16:04;17.80;99.90
24470;DHT22;12635;50.852;5.676;2023-04-19T08:18:33;18.50;99.90
24470;DHT22;12635;50.852;5.676;2023-04-19T08:21:00;18.90;99.90
24470;DHT22;12635;50.852;5.676;2023-04-19T08:23:27;17.40;99.90
24470;DHT22;12635;50.852;5.676;2023-04-19T08:25:54;17.40;99.90
24470;DHT22;12635;50.852;5.676;2023-04-19T08:28:21;18.50;99.90
24470;DHT22;12635;50.852;5.676;2023-04-19T08:30:48;17.30;99.90
24470;DHT22;12635;50.852;5.676;2023-04-19T08:33:17;16.70;99.90
24470;DHT22;12635;50.852;5.676;2023-04-19T08:35:44;16.70;99.90
24470;DHT22;12635;50.852;5.676;2023-04-19T08:38:10;18.70;99.90
24470;DHT22;12635;50.852;5.676;2023-04-19T08:40:38;18.70;99.90
24470;DHT22;12635;50.852;5.676;2023-04-19T08:43:07;18.80;99.90
24470;DHT22;12635;50.852;5.676;2023-04-19T08:45:33;19.20;99.90
24470;DHT22;12635;50.852;5.676;2023-04-19T08:48:01;20.20;99.90
24470;DHT22;12635;50.852;5.676;2023-04-19T08:50:30;18.30;99.90
24470;DHT22;12635;50.852;5.676;2023-04-19T08:52:57;17.60;99.90
24470;DHT22;12635;50.852;5.676;2023-04-19T08:55:24;18.60;99.90
24470;DHT22;12635;50.852;5.676;2023-04-19T08:57:51;20.30;99.90
24470;DHT22;12635;50.852;5.676;2023-04-19T09:00:18;19.70;99.90
24470;DHT22;12635;50.852;5.676;2023-04-19T09:02:45;19.60;99.90
24470;DHT22;12635;50.852;5.676;2023-04-19T09:05:13;19.60;99.90
24470;DHT22;12635;50.852;5.676;2023-04-19T09:07:41;18.10;99.90
24470;DHT22;12635;50.852;5.676;2023-04-19T09:10:09;17.70;99.90
24470;DHT22;12635;50.852;5.676;2023-04-19T09:12:36;19.20;99.90
24470;DHT22;12635;50.852;5.676;2023-04-19T09:15:04;19.50;99.90
24470;DHT22;12635;50.852;5.676;2023-04-19T09:17:33;20.60;99.90
24470;DHT22;12635;50.852;5.676;2023-04-19T09:20:00;18.30;99.90
24470;DHT22;12635;50.852;5.676;2023-04-19T09:22:26;17.20;99.90
24470;DHT22;12635;50.852;5.676;2023-04-19T09:24:55;16.80;99.90
24470;DHT22;12635;50.852;5.676;2023-04-19T09:27:24;17.40;99.90
24470;DHT22;12635;50.852;5.676;2023-04-19T09:29:51;18.90;99.90
24470;DHT22;12635;50.852;5.676;2023-04-19T09:32:18;19.40;99.90
24470;DHT22;12635;50.852;5.676;2023-04-19T09:34:49;19.90;99.90
24470;DHT22;12635;50.852;5.676;2023-04-19T09:37:16;20.20;99.90
24470;DHT22;12635;50.852;5.676;2023-04-19T09:39:43;19.00;99.90
24470;DHT22;12635;50.852;5.676;2023-04-19T09:42:11;18.50;99.90
24470;DHT22;12635;50.852;5.676;2023-04-19T09:44:38;19.30;99.90
24470;DHT22;12635;50.852;5.676;2023-04-19T09:47:19;18.70;99.90
24470;DHT22;12635;50.852;5.676;2023-04-19T09:49:47;17.10;99.90
24470;DHT22;12635;50.852;5.676;2023-04-19T09:52:14;16.90;99.90
24470;DHT22;12635;50.852;5.676;2023-04-19T09:54:40;16.50;99.90
24470;DHT22;12635;50.852;5.676;2023-04-19T09:57:07;16.30;99.90
24470;DHT22;12635;50.852;5.676;2023-04-19T09:59:36;17.50;99.90
24470;DHT22;12635;50.852;5.676;2023-04-19T10:02:02;17.20;99.90
24470;DHT22;12635;50.852;5.676;2023-04-19T10:04:30;18.20;99.90
24470;DHT22;12635;50.852;5.676;2023-04-19T10:06:57;17.50;99.90
24470;DHT22;12635;50.852;5.676;2023-04-19T10:09:25;17.70;99.90
24470;DHT22;12635;50.852;5.676;2023-04-19T10:11:52;18.00;99.90
24470;DHT22;12635;50.852;5.676;2023-04-19T10:14:21;18.10;99.90
24470;DHT22;12635;50.852;5.676;2023-04-19T10:16:50;16.80;99.90
24470;DHT22;12635;50.852;5.676;2023-04-19T10:19:18;16.50;99.90
24470;DHT22;12635;50.852;5.676;2023-04-19T10:21:45;17.00;99.90
24470;DHT22;12635;50.852;5.676;2023-04-19T10:24:14;19.00;99.90
24470;DHT22;12635;50.852;5.676;2023-04-19T10:32:13;16.70;99.90
24470;DHT22;12635;50.852;5.676;2023-04-19T10:34:42;18.30;99.90
24470;DHT22;12635;50.852;5.676;2023-04-19T10:37:12;18.80;99.90
24470;DHT22;12635;50.852;5.676;2023-04-19T10:39:40;18.50;99.90
24470;DHT22;12635;50.852;5.676;2023-04-19T10:42:07;19.10;99.90
24470;DHT22;12635;50.852;5.676;2023-04-19T10:44:34;18.60;99.90
24470;DHT22;12635;50.852;5.676;2023-04-19T10:47:01;18.60;99.90
24470;DHT22;12635;50.852;5.676;2023-04-19T10:49:32;17.30;99.90
24470;DHT22;12635;50.852;5.676;2023-04-19T10:52:16;16.90;99.90
24470;DHT22;12635;50.852;5.676;2023-04-19T10:54:54;17.30;99.90
24470;DHT22;12635;50.852;5.676;2023-04-19T10:57:21;16.40;99.90
24470;DHT22;12635;50.852;5.676;2023-04-19T11:00:16;17.50;99.90
24470;DHT22;12635;50.852;5.676;2023-04-19T11:02:43;18.60;99.90
24470;DHT22;12635;50.852;5.676;2023-04-19T11:05:12;19.30;99.90
24470;DHT22;12635;50.852;5.676;2023-04-19T11:07:40;19.40;99.90
24470;DHT22;12635;50.852;5.676;2023-04-19T11:10:08;19.50;99.90
24470;DHT22;12635;50.852;5.676;2023-04-19T11:12:35;19.20;99.90
24470;DHT22;12635;50.852;5.676;2023-04-19T11:15:04;18.40;99.90
24470;DHT22;12635;50.852;5.676;2023-04-19T11:17:33;18.00;99.90
24470;DHT22;12635;50.852;5.676;2023-04-19T11:20:03;17.90;99.90
24470;DHT22;12635;50.852;5.676;2023-04-19T11:22:33;18.30;99.90
24470;DHT22;12635;50.852;5.676;2023-04-19T11:25:04;18.50;99.90
24470;DHT22;12635;50.852;5.676;2023-04-19T11:27:31;18.00;99.90
24470;DHT22;12635;50.852;5.676;2023-04-19T11:30:00;17.80;99.90
24470;DHT22;12635;50.852;5.676;2023-04-19T11:32:27;18.40;99.90
24470;DHT22;12635;50.852;5.676;2023-04-19T11:34:54;18.50;99.90
24470;DHT22;12635;50.852;5.676;2023-04-19T11:37:21;17.70;99.90
24470;DHT22;12635;50.852;5.676;2023-04-19T11:39:50;18.10;99.90
24470;DHT22;12635;50.852;5.676;2023-04-19T11:42:17;16.90;99.90
24470;DHT22;12635;50.852;5.676;2023-04-19T11:44:48;17.60;99.90
24470;DHT22;12635;50.852;5.676;2023-04-19T11:47:16;18.10;99.90
24470;DHT22;12635;50.852;5.676;2023-04-19T11:49:43;18.40;99.90
24470;DHT22;12635;50.852;5.676;2023-04-19T11:52:10;19.30;99.90
24470;DHT22;12635;50.852;5.676;2023-04-19T11:54:37;18.90;99.90
24470;DHT22;12635;50.852;5.676;2023-04-19T11:57:06;18.90;99.90
24470;DHT22;12635;50.852;5.676;2023-04-19T11:59:34;18.90;99.90
24470;DHT22;12635;50.852;5.676;2023-04-19T12:02:07;19.00;99.90
24470;DHT22;12635;50.852;5.676;2023-04-19T12:04:34;17.90;99.90
24470;DHT22;12635;50.852;5.676;2023-04-19T12:07:02;17.80;99.90
24470;DHT22;12635;50.852;5.676;2023-04-19T12:09:31;17.90;99.90
24470;DHT22;12635;50.852;5.676;2023-04-19T12:11:58;17.90;99.90
24470;DHT22;12635;50.852;5.676;2023-04-19T12:14:26;18.10;99.90
24470;DHT22;12635;50.852;5.676;2023-04-19T12:17:06;18.80;99.90
24470;DHT22;12635;50.852;5.676;2023-04-19T12:19:33;18.70;99.90
24470;DHT22;12635;50.852;5.676;2023-04-19T12:22:06;17.70;99.90
24470;DHT22;12635;50.852;5.676;2023-04-19T12:24:33;17.90;99.90
24470;DHT22;12635;50.852;5.676;2023-04-19T12:27:00;18.60;99.90
24470;DHT22;12635;50.852;5.676;2023-04-19T12:29:28;17.90;99.90
24470;DHT22;12635;50.852;5.676;2023-04-19T12:31:55;18.10;99.90
24470;DHT22;12635;50.852;5.676;2023-04-19T12:34:22;18.20;99.90
24470;DHT22;12635;50.852;5.676;2023-04-19T12:36:49;18.50;99.90
24470;DHT22;12635;50.852;5.676;2023-04-19T12:39:15;18.60;99.90
24470;DHT22;12635;50.852;5.676;2023-04-19T12:41:42;18.50;99.90
24470;DHT22;12635;50.852;5.676;2023-04-19T12:44:10;18.10;99.90
24470;DHT22;12635;50.852;5.676;2023-04-19T12:46:38;17.20;99.90
24470;DHT22;12635;50.852;5.676;2023-04-19T12:49:05;17.70;99.90
24470;DHT22;12635;50.852;5.676;2023-04-19T12:51:32;18.40;99.90
24470;DHT22;12635;50.852;5.676;2023-04-19T12:53:59;18.70;99.90
24470;DHT22;12635;50.852;5.676;2023-04-19T12:56:26;18.60;99.90
24470;DHT22;12635;50.852;5.676;2023-04-19T12:58:53;19.30;99.90
24470;DHT22;12635;50.852;5.676;2023-04-19T13:01:20;19.00;99.90
24470;DHT22;12635;50.852;5.676;2023-04-19T13:03:49;18.50;99.90
24470;DHT22;12635;50.852;5.676;2023-04-19T13:06:16;18.50;99.90
24470;DHT22;12635;50.852;5.676;2023-04-19T13:08:43;18.50;99.90
24470;DHT22;12635;50.852;5.676;2023-04-19T13:11:09;19.10;99.90
24470;DHT22;12635;50.852;5.676;2023-04-19T13:13:36;19.40;99.90
24470;DHT22;12635;50.852;5.676;2023-04-19T13:16:03;18.80;99.90
24470;DHT22;12635;50.852;5.676;2023-04-19T13:21:00;19.30;99.90
24470;DHT22;12635;50.852;5.676;2023-04-19T13:23:27;19.00;99.90
24470;DHT22;12635;50.852;5.676;2023-04-19T13:25:54;18.90;99.90
24470;DHT22;12635;50.852;5.676;2023-04-19T13:28:21;18.60;99.90
24470;DHT22;12635;50.852;5.676;2023-04-19T13:30:48;18.40;99.90
24470;DHT22;12635;50.852;5.676;2023-04-19T13:33:14;17.70;99.90
24470;DHT22;12635;50.852;5.676;2023-04-19T13:35:41;18.20;99.90
24470;DHT22;12635;50.852;5.676;2023-04-19T13:38:10;18.70;99.90
24470;DHT22;12635;50.852;5.676;2023-04-19T13:40:37;19.50;99.90
24470;DHT22;12635;50.852;5.676;2023-04-19T13:43:04;18.90;99.90
24470;DHT22;12635;50.852;5.676;2023-04-19T13:45:31;19.70;99.90
24470;DHT22;12635;50.852;5.676;2023-04-19T13:47:58;19.80;99.90
24470;DHT22;12635;50.852;5.676;2023-04-19T13:50:25;19.40;99.90
24470;DHT22;12635;50.852;5.676;2023-04-19T13:52:52;17.90;99.90
24470;DHT22;12635;50.852;5.676;2023-04-19T13:55:20;18.70;99.90
24470;DHT22;12635;50.852;5.676;2023-04-19T13:57:47;18.40;99.90
24470;DHT22;12635;50.852;5.676;2023-04-19T14:00:14;18.10;99.90
24470;DHT22;12635;50.852;5.676;2023-04-19T14:02:41;18.60;99.90
24470;DHT22;12635;50.852;5.676;2023-04-19T14:05:09;19.20;99.90
24470;DHT22;12635;50.852;5.676;2023-04-19T14:07:37;19.00;99.90
24470;DHT22;12635;50.852;5.676;2023-04-19T14:10:04;18.80;99.90
24470;DHT22;12635;50.852;5.676;2023-04-19T14:15:01;19.00;99.90
24470;DHT22;12635;50.852;5.676;2023-04-19T14:17:28;19.20;99.90
24470;DHT22;12635;50.852;5.676;2023-04-19T14:19:55;18.30;99.90
24470;DHT22;12635;50.852;5.676;2023-04-19T14:22:22;18.40;99.90
24470;DHT22;12635;50.852;5.676;2023-04-19T14:24:49;18.00;99.90
24470;DHT22;12635;50.852;5.676;2023-04-19T14:27:16;18.10;99.90
24470;DHT22;12635;50.852;5.676;2023-04-19T14:29:43;17.80;99.90
24470;DHT22;12635;50.852;5.676;2023-04-19T14:32:11;18.70;99.90
24470;DHT22;12635;50.852;5.676;2023-04-19T14:34:38;18.90;99.90
24470;DHT22;12635;50.852;5.676;2023-04-19T14:37:05;18.50;99.90
24470;DHT22;12635;50.852;5.676;2023-04-19T14:39:32;18.00;99.90
24470;DHT22;12635;50.852;5.676;2023-04-19T14:41:59;17.60;99.90
24470;DHT22;12635;50.852;5.676;2023-04-19T14:44:26;17.80;99.90
24470;DHT22;12635;50.852;5.676;2023-04-19T14:46:52;17.40;99.90
24470;DHT22;12635;50.852;5.676;2023-04-19T14:49:21;17.30;99.90
24470;DHT22;12635;50.852;5.676;2023-04-19T14:51:48;16.10;99.90
24470;DHT22;12635;50.852;5.676;2023-04-19T14:54:15;16.60;99.90
24470;DHT22;12635;50.852;5.676;2023-04-19T14:56:41;16.50;99.90
24470;DHT22;12635;50.852;5.676;2023-04-19T14:59:08;16.90;99.90
24470;DHT22;12635;50.852;5.676;2023-04-19T15:01:35;17.30;99.90
24470;DHT22;12635;50.852;5.676;2023-04-19T15:04:02;17.90;99.90
24470;DHT22;12635;50.852;5.676;2023-04-19T15:06:30;18.10;99.90
24470;DHT22;12635;50.852;5.676;2023-04-19T15:08:57;18.30;99.90
24470;DHT22;12635;50.852;5.676;2023-04-19T15:11:24;18.30;99.90
24470;DHT22;12635;50.852;5.676;2023-04-19T15:13:51;17.10;99.90
24470;DHT22;12635;50.852;5.676;2023-04-19T15:16:18;17.70;99.90
24470;DHT22;12635;50.852;5.676;2023-04-19T15:18:45;16.80;99.90
24470;DHT22;12635;50.852;5.676;2023-04-19T15:21:11;17.40;99.90
24470;DHT22;12635;50.852;5.676;2023-04-19T15:23:40;18.00;99.90
24470;DHT22;12635;50.852;5.676;2023-04-19T15:26:07;17.60;99.90
24470;DHT22;12635;50.852;5.676;2023-04-19T15:28:33;17.50;99.90
24470;DHT22;12635;50.852;5.676;2023-04-19T15:31:02;18.10;99.90
24470;DHT22;12635;50.852;5.676;2023-04-19T15:33:29;17.90;99.90
24470;DHT22;12635;50.852;5.676;2023-04-19T15:35:56;18.30;99.90
24470;DHT22;12635;50.852;5.676;2023-04-19T15:38:23;17.80;99.90
24470;DHT22;12635;50.852;5.676;2023-04-19T15:40:52;18.20;99.90
24470;DHT22;12635;50.852;5.676;2023-04-19T15:43:19;18.40;99.90
24470;DHT22;12635;50.852;5.676;2023-04-19T15:45:46;17.80;99.90
24470;DHT22;12635;50.852;5.676;2023-04-19T15:48:13;17.90;99.90